sensor_id;sensor_type;location;lat;lon;timestamp;pressure;altitude;pressure_sealevel;temperature;humidity
12146;BME280;6136;47.032;15.398;2023-02-21T00:01:29;97656.66;;;2.46;100.00
12146;BME280;6136;47.032;15.398;2023-02-21T00:04:14;97650.75;;;2.39;100.00
12146;BME280;6136;47.032;15.398;2023-02-21T00:07:00;97641.34;;;2.32;100.00
12146;BME280;6136;47.032;15.398;2023-02-21T00:09:46;97659.63;;;2.33;100.00
12146;BME280;6136;47.032;15.398;2023-02-21T00:12:31;97656.22;;;2.30;100.00
12146;BME280;6136;47.032;15.398;2023-02-21T00:15:18;97662.38;;;2.29;100.00
12146;BME280;6136;47.032;15.398;2023-02-21T00:18:04;97653.75;;;2.25;100.00
12146;BME280;6136;47.032;15.398;2023-02-21T00:20:49;97648.53;;;2.25;100.00
12146;BME280;6136;47.032;15.398;2023-02-21T00:23:35;97649.81;;;2.11;100.00
12146;BME280;6136;47.032;15.398;2023-02-21T00:26:21;97650.72;;;2.08;100.00
12146;BME280;6136;47.032;15.398;2023-02-21T00:29:07;97651.69;;;2.06;100.00
12146;BME280;6136;47.032;15.398;2023-02-21T00:31:55;97643.03;;;2.04;100.00
12146;BME280;6136;47.032;15.398;2023-02-21T00:34:40;97649.28;;;1.98;100.00
12146;BME280;6136;47.032;15.398;2023-02-21T00:37:26;97645.00;;;1.95;100.00
12146;BME280;6136;47.032;15.398;2023-02-21T00:40:13;97644.13;;;1.95;100.00
12146;BME280;6136;47.032;15.398;2023-02-21T00:42:59;97637.25;;;1.92;100.00
12146;BME280;6136;47.032;15.398;2023-02-21T00:45:45;97642.41;;;1.94;100.00
12146;BME280;6136;47.032;15.398;2023-02-21T00:48:32;97644.22;;;1.92;100.00
12146;BME280;6136;47.032;15.398;2023-02-21T00:51:18;97630.25;;;1.93;100.00
12146;BME280;6136;47.032;15.398;2023-02-21T00:54:03;97627.63;;;1.93;100.00
12146;BME280;6136;47.032;15.398;2023-02-21T00:56:49;97632.75;;;1.98;100.00
12146;BME280;6136;47.032;15.398;2023-02-21T00:59:35;97636.28;;;1.95;100.00
12146;BME280;6136;47.032;15.398;2023-02-21T01:02:21;97627.59;;;1.94;100.00
12146;BME280;6136;47.032;15.398;2023-02-21T01:05:08;97624.88;;;1.99;100.00
12146;BME280;6136;47.032;15.398;2023-02-21T01:07:55;97629.97;;;2.04;100.00
12146;BME280;6136;47.032;15.398;2023-02-21T01:10:40;97622.81;;;2.10;100.00
12146;BME280;6136;47.032;15.398;2023-02-21T01:13:26;97621.88;;;2.13;100.00
12146;BME280;6136;47.032;15.398;2023-02-21T01:16:12;97641.25;;;2.06;100.00
12146;BME280;6136;47.032;15.398;2023-02-21T01:18:57;97627.28;;;2.07;100.00
12146;BME280;6136;47.032;15.398;2023-02-21T01:21:44;97629.13;;;2.02;100.00
12146;BME280;6136;47.032;15.398;2023-02-21T01:24:30;97629.28;;;1.97;100.00
12146;BME280;6136;47.032;15.398;2023-02-21T01:27:15;97618.69;;;2.02;100.00
12146;BME280;6136;47.032;15.398;2023-02-21T01:30:01;97624.09;;;1.95;100.00
12146;BME280;6136;47.032;15.398;2023-02-21T01:32:46;97621.41;;;1.99;100.00
12146;BME280;6136;47.032;15.398;2023-02-21T01:35:31;97618.69;;;2.02;100.00
12146;BME280;6136;47.032;15.398;2023-02-21T01:38:18;97616.91;;;2.04;100.00
12146;BME280;6136;47.032;15.398;2023-02-21T01:41:04;97611.50;;;2.10;100.00
12146;BME280;6136;47.032;15.398;2023-02-21T01:43:57;97599.59;;;2.00;100.00
12146;BME280;6136;47.032;15.398;2023-02-21T01:46:43;97603.00;;;2.02;100.00
12146;BME280;6136;47.032;15.398;2023-02-21T01:49:29;97597.78;;;2.02;100.00
12146;BME280;6136;47.032;15.398;2023-02-21T01:52:16;97591.00;;;1.94;100.00
12146;BME280;6136;47.032;15.398;2023-02-21T01:55:04;97598.59;;;2.04;100.00
12146;BME280;6136;47.032;15.398;2023-02-21T01:57:52;97582.91;;;2.04;100.00
12146;BME280;6136;47.032;15.398;2023-02-21T02:00:40;97573.53;;;1.97;100.00
12146;BME280;6136;47.032;15.398;2023-02-21T02:03:26;97584.81;;;1.99;100.00
12146;BME280;6136;47.032;15.398;2023-02-21T02:06:15;97582.19;;;1.99;100.00
12146;BME280;6136;47.032;15.398;2023-02-21T02:09:13;97587.50;;;1.95;100.00
12146;BME280;6136;47.032;15.398;2023-02-21T02:12:15;97583.06;;;1.99;100.00
12146;BME280;6136;47.032;15.398;2023-02-21T02:15:11;97584.88;;;1.95;100.00
12146;BME280;6136;47.032;15.398;2023-02-21T02:18:02;97584.25;;;1.87;100.00
12146;BME280;6136;47.032;15.398;2023-02-21T02:20:50;97582.63;;;1.83;100.00
12146;BME280;6136;47.032;15.398;2023-02-21T02:27:19;97585.19;;;1.85;100.00
12146;BME280;6136;47.032;15.398;2023-02-21T02:30:07;97579.13;;;1.84;100.00
12146;BME280;6136;47.032;15.398;2023-02-21T02:35:43;97590.25;;;1.91;100.00
12146;BME280;6136;47.032;15.398;2023-02-21T02:38:19;97584.16;;;1.90;100.00
12146;BME280;6136;47.032;15.398;2023-02-21T02:40:57;97585.06;;;1.89;100.00
12146;BME280;6136;47.032;15.398;2023-02-21T02:43:30;97582.47;;;1.88;100.00
12146;BME280;6136;47.032;15.398;2023-02-21T02:46:03;97583.22;;;1.93;100.00
12146;BME280;6136;47.032;15.398;2023-02-21T02:48:37;97587.59;;;1.92;100.00
12146;BME280;6136;47.032;15.398;2023-02-21T02:51:12;97584.25;;;1.87;100.00
12146;BME280;6136;47.032;15.398;2023-02-21T02:53:42;97574.53;;;1.92;100.00
12146;BME280;6136;47.032;15.398;2023-02-21T02:56:14;97578.94;;;1.90;100.00
12146;BME280;6136;47.032;15.398;2023-02-21T02:58:46;97571.94;;;1.92;100.00
12146;BME280;6136;47.032;15.398;2023-02-21T03:01:29;97577.28;;;1.86;100.00
12146;BME280;6136;47.032;15.398;2023-02-21T03:04:21;97581.66;;;1.86;100.00
12146;BME280;6136;47.032;15.398;2023-02-21T03:06:57;97575.84;;;1.76;100.00
12146;BME280;6136;47.032;15.398;2023-02-21T03:09:36;97581.81;;;1.81;100.00
12146;BME280;6136;47.032;15.398;2023-02-21T03:12:09;97584.47;;;1.78;100.00
12146;BME280;6136;47.032;15.398;2023-02-21T03:14:49;97582.81;;;1.77;100.00
12146;BME280;6136;47.032;15.398;2023-02-21T03:17:19;97575.00;;;1.76;100.00
12146;BME280;6136;47.032;15.398;2023-02-21T03:19:52;97582.06;;;1.71;100.00
12146;BME280;6136;47.032;15.398;2023-02-21T03:22:25;97583.91;;;1.69;100.00
12146;BME280;6136;47.032;15.398;2023-02-21T03:24:57;97579.59;;;1.66;100.00
12146;BME280;6136;47.032;15.398;2023-02-21T03:27:28;97575.38;;;1.62;100.00
12146;BME280;6136;47.032;15.398;2023-02-21T03:30:07;97573.56;;;1.64;100.00
12146;BME280;6136;47.032;15.398;2023-02-21T03:32:38;97564.94;;;1.62;100.00
12146;BME280;6136;47.032;15.398;2023-02-21T03:35:07;97571.13;;;1.58;100.00
12146;BME280;6136;47.032;15.398;2023-02-21T03:37:40;97560.66;;;1.58;100.00
12146;BME280;6136;47.032;15.398;2023-02-21T03:40:12;97575.56;;;1.54;100.00
12146;BME280;6136;47.032;15.398;2023-02-21T03:42:45;97566.00;;;1.55;100.00
12146;BME280;6136;47.032;15.398;2023-02-21T03:45:16;97559.91;;;1.54;100.00
12146;BME280;6136;47.032;15.398;2023-02-21T03:47:55;97561.50;;;1.60;100.00
12146;BME280;6136;47.032;15.398;2023-02-21T03:50:24;97560.78;;;1.55;100.00
12146;BME280;6136;47.032;15.398;2023-02-21T03:52:53;97563.28;;;1.58;100.00
12146;BME280;6136;47.032;15.398;2023-02-21T03:55:22;97560.78;;;1.55;100.00
12146;BME280;6136;47.032;15.398;2023-02-21T03:57:51;97565.19;;;1.51;100.00
12146;BME280;6136;47.032;15.398;2023-02-21T04:00:20;97568.59;;;1.55;100.00
12146;BME280;6136;47.032;15.398;2023-02-21T04:02:51;97564.28;;;1.54;100.00
12146;BME280;6136;47.032;15.398;2023-02-21T04:05:35;97563.47;;;1.50;100.00
12146;BME280;6136;47.032;15.398;2023-02-21T04:08:05;97576.44;;;1.55;100.00
12146;BME280;6136;47.032;15.398;2023-02-21T04:10:33;97572.00;;;1.57;100.00
12146;BME280;6136;47.032;15.398;2023-02-21T04:13:17;97565.00;;;1.59;100.00
12146;BME280;6136;47.032;15.398;2023-02-21T04:15:47;97565.06;;;1.56;100.00
12146;BME280;6136;47.032;15.398;2023-02-21T04:18:15;97561.00;;;1.46;100.00
12146;BME280;6136;47.032;15.398;2023-02-21T04:20:46;97567.13;;;1.45;100.00
12146;BME280;6136;47.032;15.398;2023-02-21T04:23:20;97566.28;;;1.43;100.00
12146;BME280;6136;47.032;15.398;2023-02-21T04:25:48;97556.00;;;1.37;100.00
12146;BME280;6136;47.032;15.398;2023-02-21T04:28:26;97556.88;;;1.37;100.00
12146;BME280;6136;47.032;15.398;2023-02-21T04:30:54;97561.22;;;1.37;100.00
12146;BME280;6136;47.032;15.398;2023-02-21T04:33:23;97561.41;;;1.31;100.00
12146;BME280;6136;47.032;15.398;2023-02-21T04:35:51;97550.16;;;1.27;100.00
12146;BME280;6136;47.032;15.398;2023-02-21T04:38:31;97557.19;;;1.25;100.00
12146;BME280;6136;47.032;15.398;2023-02-21T04:40:59;97559.84;;;1.24;100.00
12146;BME280;6136;47.032;15.398;2023-02-21T04:43:28;97549.47;;;1.21;100.00
12146;BME280;6136;47.032;15.398;2023-02-21T04:45:56;97563.41;;;1.20;100.00
12146;BME280;6136;47.032;15.398;2023-02-21T04:48:25;97560.06;;;1.14;100.00
12146;BME280;6136;47.032;15.398;2023-02-21T04:50:53;97557.41;;;1.17;100.00
12146;BME280;6136;47.032;15.398;2023-02-21T04:53:27;97551.38;;;1.14;100.00
12146;BME280;6136;47.032;15.398;2023-02-21T04:55:56;97547.84;;;1.16;100.00
12146;BME280;6136;47.032;15.398;2023-02-21T04:58:24;97551.34;;;1.15;100.00
12146;BME280;6136;47.032;15.398;2023-02-21T05:01:02;97543.72;;;1.08;100.00
12146;BME280;6136;47.032;15.398;2023-02-21T05:03:30;97546.19;;;1.12;100.00
12146;BME280;6136;47.032;15.398;2023-02-21T05:05:58;97555.00;;;1.08;100.00
12146;BME280;6136;47.032;15.398;2023-02-21T05:08:26;97549.78;;;1.08;100.00
12146;BME280;6136;47.032;15.398;2023-02-21T05:10:55;97549.81;;;1.07;100.00
12146;BME280;6136;47.032;15.398;2023-02-21T05:13:24;97539.41;;;1.05;100.00
12146;BME280;6136;47.032;15.398;2023-02-21T05:15:52;97534.31;;;1.01;100.00
12146;BME280;6136;47.032;15.398;2023-02-21T05:18:20;97533.50;;;0.99;100.00
12146;BME280;6136;47.032;15.398;2023-02-21T05:20:52;97537.69;;;1.04;100.00
12146;BME280;6136;47.032;15.398;2023-02-21T05:23:20;97543.97;;;0.97;100.00
12146;BME280;6136;47.032;15.398;2023-02-21T05:26:01;97534.44;;;0.96;100.00
12146;BME280;6136;47.032;15.398;2023-02-21T05:28:31;97541.34;;;0.97;100.00
12146;BME280;6136;47.032;15.398;2023-02-21T05:30:59;97539.66;;;0.96;100.00
12146;BME280;6136;47.032;15.398;2023-02-21T05:33:27;97541.31;;;0.99;100.00
12146;BME280;6136;47.032;15.398;2023-02-21T05:35:55;97543.16;;;0.95;100.00
12146;BME280;6136;47.032;15.398;2023-02-21T05:38:24;97548.44;;;0.92;100.00
12146;BME280;6136;47.032;15.398;2023-02-21T05:40:53;97545.00;;;0.90;100.00
12146;BME280;6136;47.032;15.398;2023-02-21T05:43:22;97532.94;;;0.86;100.00
12146;BME280;6136;47.032;15.398;2023-02-21T05:45:54;97539.03;;;0.87;100.00
12146;BME280;6136;47.032;15.398;2023-02-21T05:48:22;97538.91;;;0.91;100.00
12146;BME280;6136;47.032;15.398;2023-02-21T05:50:51;97546.88;;;0.85;100.00
12146;BME280;6136;47.032;15.398;2023-02-21T05:53:19;97550.31;;;0.87;100.00
12146;BME280;6136;47.032;15.398;2023-02-21T05:55:47;97543.28;;;0.89;100.00
12146;BME280;6136;47.032;15.398;2023-02-21T05:58:15;97553.03;;;0.83;100.00
12146;BME280;6136;47.032;15.398;2023-02-21T06:00:44;97554.78;;;0.82;100.00
12146;BME280;6136;47.032;15.398;2023-02-21T06:03:12;97541.97;;;0.73;100.00
12146;BME280;6136;47.032;15.398;2023-02-21T06:05:41;97558.19;;;0.86;100.00
12146;BME280;6136;47.032;15.398;2023-02-21T06:08:09;97546.09;;;0.82;100.00
12146;BME280;6136;47.032;15.398;2023-02-21T06:10:39;97555.69;;;0.81;100.00
12146;BME280;6136;47.032;15.398;2023-02-21T06:13:07;97554.03;;;0.77;100.00
12146;BME280;6136;47.032;15.398;2023-02-21T06:15:35;97537.56;;;0.75;100.00
12146;BME280;6136;47.032;15.398;2023-02-21T06:18:05;97553.78;;;0.88;100.00
12146;BME280;6136;47.032;15.398;2023-02-21T06:20:33;97568.56;;;0.89;100.00
12146;BME280;6136;47.032;15.398;2023-02-21T06:23:01;97562.47;;;0.88;100.00
12146;BME280;6136;47.032;15.398;2023-02-21T06:25:29;97563.41;;;0.84;100.00
12146;BME280;6136;47.032;15.398;2023-02-21T06:27:57;97560.72;;;0.89;100.00
12146;BME280;6136;47.032;15.398;2023-02-21T06:30:26;97570.88;;;0.99;100.00
12146;BME280;6136;47.032;15.398;2023-02-21T06:32:54;97560.00;;;1.17;100.00
12146;BME280;6136;47.032;15.398;2023-02-21T06:35:23;97568.50;;;1.26;100.00
12146;BME280;6136;47.032;15.398;2023-02-21T06:37:52;97544.03;;;1.30;100.00
12146;BME280;6136;47.032;15.398;2023-02-21T06:40:20;97561.66;;;1.54;100.00
12146;BME280;6136;47.032;15.398;2023-02-21T06:42:48;97557.56;;;1.76;100.00
12146;BME280;6136;47.032;15.398;2023-02-21T06:45:16;97561.28;;;1.99;100.00
12146;BME280;6136;47.032;15.398;2023-02-21T06:47:44;97566.66;;;2.23;100.00
12146;BME280;6136;47.032;15.398;2023-02-21T06:50:12;97576.31;;;2.51;100.00
12146;BME280;6136;47.032;15.398;2023-02-21T06:52:42;97580.31;;;2.90;100.00
12146;BME280;6136;47.032;15.398;2023-02-21T06:55:10;97581.91;;;3.22;100.00
12146;BME280;6136;47.032;15.398;2023-02-21T06:57:38;97579.13;;;3.78;100.00
12146;BME280;6136;47.032;15.398;2023-02-21T07:00:08;97586.81;;;4.30;100.00
12146;BME280;6136;47.032;15.398;2023-02-21T07:02:36;97582.38;;;4.78;100.00
12146;BME280;6136;47.032;15.398;2023-02-21T07:05:05;97591.69;;;5.08;100.00
12146;BME280;6136;47.032;15.398;2023-02-21T07:07:34;97586.31;;;5.33;100.00
12146;BME280;6136;47.032;15.398;2023-02-21T07:10:04;97577.00;;;5.46;98.79
12146;BME280;6136;47.032;15.398;2023-02-21T07:12:32;97574.34;;;5.88;99.11
12146;BME280;6136;47.032;15.398;2023-02-21T07:15:04;97572.59;;;6.46;92.32
12146;BME280;6136;47.032;15.398;2023-02-21T07:17:32;97566.50;;;6.65;86.79
12146;BME280;6136;47.032;15.398;2023-02-21T07:20:01;97584.09;;;7.00;87.46
12146;BME280;6136;47.032;15.398;2023-02-21T07:22:29;97568.13;;;7.22;81.77
12146;BME280;6136;47.032;15.398;2023-02-21T07:24:57;97569.66;;;7.62;81.88
12146;BME280;6136;47.032;15.398;2023-02-21T07:27:27;97569.63;;;7.96;78.75
12146;BME280;6136;47.032;15.398;2023-02-21T07:29:55;97578.34;;;8.31;76.87
12146;BME280;6136;47.032;15.398;2023-02-21T07:32:23;97577.19;;;8.37;74.73
12146;BME280;6136;47.032;15.398;2023-02-21T07:34:51;97578.44;;;8.78;73.71
12146;BME280;6136;47.032;15.398;2023-02-21T07:37:20;97575.75;;;8.95;71.13
12146;BME280;6136;47.032;15.398;2023-02-21T07:39:49;97578.38;;;8.80;71.60
12146;BME280;6136;47.032;15.398;2023-02-21T07:42:17;97584.72;;;8.60;72.12
12146;BME280;6136;47.032;15.398;2023-02-21T07:44:47;97585.63;;;9.08;71.27
12146;BME280;6136;47.032;15.398;2023-02-21T07:47:15;97585.25;;;9.45;68.22
12146;BME280;6136;47.032;15.398;2023-02-21T07:49:43;97573.19;;;9.85;66.40
12146;BME280;6136;47.032;15.398;2023-02-21T07:52:12;97569.22;;;10.22;66.24
12146;BME280;6136;47.032;15.398;2023-02-21T07:54:40;97573.47;;;10.25;62.71
12146;BME280;6136;47.032;15.398;2023-02-21T07:57:08;97575.88;;;10.29;61.66
12146;BME280;6136;47.032;15.398;2023-02-21T07:59:36;97574.63;;;10.63;62.75
12146;BME280;6136;47.032;15.398;2023-02-21T08:02:06;97583.59;;;10.89;61.32
12146;BME280;6136;47.032;15.398;2023-02-21T08:04:34;97579.94;;;11.18;60.12
12146;BME280;6136;47.032;15.398;2023-02-21T08:07:03;97566.09;;;11.67;58.19
12146;BME280;6136;47.032;15.398;2023-02-21T08:09:31;97560.91;;;12.05;57.06
12146;BME280;6136;47.032;15.398;2023-02-21T08:12:00;97560.94;;;12.43;54.52
12146;BME280;6136;47.032;15.398;2023-02-21T08:14:28;97565.78;;;12.62;53.67
12146;BME280;6136;47.032;15.398;2023-02-21T08:16:56;97567.44;;;13.01;53.59
12146;BME280;6136;47.032;15.398;2023-02-21T08:19:26;97573.72;;;13.36;52.26
12146;BME280;6136;47.032;15.398;2023-02-21T08:21:54;97560.94;;;13.65;52.58
12146;BME280;6136;47.032;15.398;2023-02-21T08:24:22;97569.16;;;13.97;50.24
12146;BME280;6136;47.032;15.398;2023-02-21T08:26:50;97567.44;;;14.31;48.89
12146;BME280;6136;47.032;15.398;2023-02-21T08:29:19;97562.53;;;14.60;49.19
12146;BME280;6136;47.032;15.398;2023-02-21T08:31:47;97563.16;;;14.86;47.99
12146;BME280;6136;47.032;15.398;2023-02-21T08:34:15;97573.38;;;15.35;47.05
12146;BME280;6136;47.032;15.398;2023-02-21T08:36:45;97561.06;;;16.18;42.33
12146;BME280;6136;47.032;15.398;2023-02-21T08:39:13;97560.84;;;16.21;41.95
12146;BME280;6136;47.032;15.398;2023-02-21T08:41:43;97569.63;;;16.33;42.09
12146;BME280;6136;47.032;15.398;2023-02-21T08:44:13;97588.19;;;16.76;41.60
12146;BME280;6136;47.032;15.398;2023-02-21T08:46:42;97576.78;;;17.04;41.91
12146;BME280;6136;47.032;15.398;2023-02-21T08:49:11;97580.38;;;17.24;41.25
12146;BME280;6136;47.032;15.398;2023-02-21T08:51:39;97560.34;;;17.97;37.80
12146;BME280;6136;47.032;15.398;2023-02-21T08:54:08;97563.16;;;17.96;38.50
12146;BME280;6136;47.032;15.398;2023-02-21T08:56:37;97553.25;;;18.35;36.68
12146;BME280;6136;47.032;15.398;2023-02-21T08:59:05;97562.47;;;18.88;33.49
12146;BME280;6136;47.032;15.398;2023-02-21T09:01:35;97561.38;;;18.81;33.36
12146;BME280;6136;47.032;15.398;2023-02-21T09:04:04;97563.84;;;18.92;33.92
12146;BME280;6136;47.032;15.398;2023-02-21T09:06:32;97555.25;;;19.44;33.58
12146;BME280;6136;47.032;15.398;2023-02-21T09:09:00;97558.94;;;19.43;33.17
12146;BME280;6136;47.032;15.398;2023-02-21T09:11:30;97550.34;;;19.84;32.69
12146;BME280;6136;47.032;15.398;2023-02-21T09:13:58;97560.00;;;19.95;32.05
12146;BME280;6136;47.032;15.398;2023-02-21T09:16:26;97554.31;;;20.33;31.72
12146;BME280;6136;47.032;15.398;2023-02-21T09:18:55;97563.59;;;20.57;31.24
12146;BME280;6136;47.032;15.398;2023-02-21T09:21:25;97560.91;;;20.57;30.50
12146;BME280;6136;47.032;15.398;2023-02-21T09:23:55;97565.91;;;21.03;29.92
12146;BME280;6136;47.032;15.398;2023-02-21T09:26:25;97563.28;;;21.53;29.29
12146;BME280;6136;47.032;15.398;2023-02-21T09:28:59;97552.81;;;21.50;28.54
12146;BME280;6136;47.032;15.398;2023-02-21T09:31:27;97556.75;;;21.80;28.98
12146;BME280;6136;47.032;15.398;2023-02-21T09:33:55;97555.94;;;21.96;29.04
12146;BME280;6136;47.032;15.398;2023-02-21T09:36:23;97556.50;;;22.24;27.87
12146;BME280;6136;47.032;15.398;2023-02-21T09:38:52;97560.03;;;22.57;27.17
12146;BME280;6136;47.032;15.398;2023-02-21T09:41:20;97543.06;;;23.50;26.56
12146;BME280;6136;47.032;15.398;2023-02-21T09:43:50;97545.44;;;23.53;26.51
12146;BME280;6136;47.032;15.398;2023-02-21T09:46:28;97552.44;;;24.24;26.63
12146;BME280;6136;47.032;15.398;2023-02-21T09:49:00;97540.53;;;24.33;26.89
12146;BME280;6136;47.032;15.398;2023-02-21T09:51:29;97557.59;;;24.94;27.27
12146;BME280;6136;47.032;15.398;2023-02-21T09:54:00;97554.66;;;24.81;26.55
12146;BME280;6136;47.032;15.398;2023-02-21T09:56:32;97553.09;;;25.01;26.54
12146;BME280;6136;47.032;15.398;2023-02-21T09:59:02;97554.94;;;25.45;25.49
12146;BME280;6136;47.032;15.398;2023-02-21T10:01:43;97546.25;;;26.21;23.85
12146;BME280;6136;47.032;15.398;2023-02-21T10:04:19;97539.84;;;25.57;24.25
12146;BME280;6136;47.032;15.398;2023-02-21T10:06:51;97541.00;;;25.99;25.35
12146;BME280;6136;47.032;15.398;2023-02-21T10:09:28;97547.19;;;25.71;24.10
12146;BME280;6136;47.032;15.398;2023-02-21T10:12:10;97545.31;;;26.50;23.21
12146;BME280;6136;47.032;15.398;2023-02-21T10:15:00;97536.03;;;26.94;22.66
12146;BME280;6136;47.032;15.398;2023-02-21T10:17:35;97536.81;;;27.16;22.04
12146;BME280;6136;47.032;15.398;2023-02-21T10:20:10;97530.16;;;27.25;22.20
12146;BME280;6136;47.032;15.398;2023-02-21T10:22:42;97530.63;;;27.00;22.00
12146;BME280;6136;47.032;15.398;2023-02-21T10:25:22;97537.31;;;27.32;21.74
12146;BME280;6136;47.032;15.398;2023-02-21T10:27:52;97525.22;;;28.02;20.95
12146;BME280;6136;47.032;15.398;2023-02-21T10:30:26;97534.44;;;28.01;21.98
12146;BME280;6136;47.032;15.398;2023-02-21T10:32:58;97527.22;;;28.35;22.72
12146;BME280;6136;47.032;15.398;2023-02-21T10:35:26;97530.59;;;28.89;22.14
12146;BME280;6136;47.032;15.398;2023-02-21T10:37:56;97523.44;;;28.55;22.96
12146;BME280;6136;47.032;15.398;2023-02-21T10:40:31;97536.28;;;28.81;22.10
12146;BME280;6136;47.032;15.398;2023-02-21T10:43:06;97523.03;;;28.52;22.10
12146;BME280;6136;47.032;15.398;2023-02-21T10:45:38;97513.69;;;29.90;20.05
12146;BME280;6136;47.032;15.398;2023-02-21T10:48:12;97516.75;;;29.62;19.28
12146;BME280;6136;47.032;15.398;2023-02-21T10:50:44;97514.97;;;29.36;18.18
12146;BME280;6136;47.032;15.398;2023-02-21T10:53:26;97510.03;;;30.90;16.48
12146;BME280;6136;47.032;15.398;2023-02-21T10:56:13;97519.56;;;29.42;17.93
12146;BME280;6136;47.032;15.398;2023-02-21T10:58:45;97508.22;;;29.90;16.63
12146;BME280;6136;47.032;15.398;2023-02-21T11:01:16;97509.91;;;30.54;16.01
12146;BME280;6136;47.032;15.398;2023-02-21T11:03:48;97507.41;;;29.83;17.25
12146;BME280;6136;47.032;15.398;2023-02-21T11:06:27;97499.50;;;29.68;17.32
12146;BME280;6136;47.032;15.398;2023-02-21T11:08:59;97497.31;;;30.53;16.27
12146;BME280;6136;47.032;15.398;2023-02-21T11:11:33;97494.66;;;30.39;16.31
12146;BME280;6136;47.032;15.398;2023-02-21T11:14:19;97492.50;;;30.17;16.13
12146;BME280;6136;47.032;15.398;2023-02-21T11:17:14;97477.81;;;31.29;15.74
12146;BME280;6136;47.032;15.398;2023-02-21T11:19:51;97478.22;;;32.10;15.27
12146;BME280;6136;47.032;15.398;2023-02-21T11:22:22;97479.19;;;31.38;15.02
12146;BME280;6136;47.032;15.398;2023-02-21T11:24:56;97470.88;;;32.99;13.74
12146;BME280;6136;47.032;15.398;2023-02-21T11:27:28;97460.78;;;31.63;15.22
12146;BME280;6136;47.032;15.398;2023-02-21T11:29:58;97465.22;;;32.35;15.49
12146;BME280;6136;47.032;15.398;2023-02-21T11:32:32;97466.72;;;32.20;15.06
12146;BME280;6136;47.032;15.398;2023-02-21T11:35:06;97472.34;;;33.53;14.01
12146;BME280;6136;47.032;15.398;2023-02-21T11:37:47;97451.09;;;34.34;13.81
12146;BME280;6136;47.032;15.398;2023-02-21T11:40:31;97461.53;;;34.03;14.05
12146;BME280;6136;47.032;15.398;2023-02-21T11:43:26;97454.13;;;36.08;12.37
12146;BME280;6136;47.032;15.398;2023-02-21T11:46:12;97451.25;;;34.94;13.06
12146;BME280;6136;47.032;15.398;2023-02-21T11:48:49;97445.41;;;34.07;13.79
12146;BME280;6136;47.032;15.398;2023-02-21T11:51:31;97442.53;;;35.19;13.23
12146;BME280;6136;47.032;15.398;2023-02-21T11:54:02;97437.94;;;36.48;12.34
12146;BME280;6136;47.032;15.398;2023-02-21T11:56:37;97430.88;;;35.12;13.57
12146;BME280;6136;47.032;15.398;2023-02-21T11:59:22;97430.56;;;36.22;12.20
12146;BME280;6136;47.032;15.398;2023-02-21T12:02:02;97431.75;;;36.09;12.55
12146;BME280;6136;47.032;15.398;2023-02-21T12:04:54;97431.84;;;34.34;13.68
12146;BME280;6136;47.032;15.398;2023-02-21T12:07:30;97420.94;;;35.54;13.06
12146;BME280;6136;47.032;15.398;2023-02-21T12:10:06;97418.34;;;33.87;14.50
12146;BME280;6136;47.032;15.398;2023-02-21T12:12:44;97417.22;;;35.43;12.97
12146;BME280;6136;47.032;15.398;2023-02-21T12:15:20;97414.75;;;34.32;13.23
12146;BME280;6136;47.032;15.398;2023-02-21T12:18:18;97410.16;;;35.26;12.79
12146;BME280;6136;47.032;15.398;2023-02-21T12:21:04;97404.25;;;34.28;13.15
12146;BME280;6136;47.032;15.398;2023-02-21T12:23:48;97396.41;;;32.60;14.51
12146;BME280;6136;47.032;15.398;2023-02-21T12:26:26;97398.31;;;32.95;14.34
12146;BME280;6136;47.032;15.398;2023-02-21T12:29:05;97388.41;;;34.36;13.43
12146;BME280;6136;47.032;15.398;2023-02-21T12:31:57;97390.25;;;33.28;14.13
12146;BME280;6136;47.032;15.398;2023-02-21T12:34:37;97382.56;;;32.55;14.62
12146;BME280;6136;47.032;15.398;2023-02-21T12:37:21;97375.91;;;34.45;13.31
12146;BME280;6136;47.032;15.398;2023-02-21T12:40:07;97385.03;;;34.67;12.70
12146;BME280;6136;47.032;15.398;2023-02-21T12:42:55;97366.69;;;33.89;13.11
12146;BME280;6136;47.032;15.398;2023-02-21T12:45:42;97366.72;;;34.06;13.06
12146;BME280;6136;47.032;15.398;2023-02-21T12:48:17;97366.47;;;32.59;14.15
12146;BME280;6136;47.032;15.398;2023-02-21T12:50:52;97363.88;;;31.87;14.39
12146;BME280;6136;47.032;15.398;2023-02-21T12:53:27;97366.47;;;32.47;13.70
12146;BME280;6136;47.032;15.398;2023-02-21T12:56:05;97348.75;;;31.85;14.59
12146;BME280;6136;47.032;15.398;2023-02-21T12:58:37;97347.94;;;31.06;15.09
12146;BME280;6136;47.032;15.398;2023-02-21T13:01:09;97347.75;;;30.28;15.49
12146;BME280;6136;47.032;15.398;2023-02-21T13:03:51;97354.09;;;30.22;15.37
12146;BME280;6136;47.032;15.398;2023-02-21T13:06:25;97345.53;;;29.87;16.21
12146;BME280;6136;47.032;15.398;2023-02-21T13:09:07;97337.28;;;30.98;14.83
12146;BME280;6136;47.032;15.398;2023-02-21T13:11:41;97341.31;;;31.44;14.23
12146;BME280;6136;47.032;15.398;2023-02-21T13:14:13;97334.88;;;30.90;14.62
12146;BME280;6136;47.032;15.398;2023-02-21T13:16:43;97328.81;;;30.08;15.88
12146;BME280;6136;47.032;15.398;2023-02-21T13:19:12;97331.41;;;32.26;14.36
12146;BME280;6136;47.032;15.398;2023-02-21T13:21:59;97319.06;;;31.10;15.11
12146;BME280;6136;47.032;15.398;2023-02-21T13:24:42;97324.69;;;30.97;14.27
12146;BME280;6136;47.032;15.398;2023-02-21T13:27:30;97327.34;;;30.06;14.43
12146;BME280;6136;47.032;15.398;2023-02-21T13:30:11;97319.34;;;30.29;15.47
12146;BME280;6136;47.032;15.398;2023-02-21T13:32:50;97316.78;;;30.71;14.72
12146;BME280;6136;47.032;15.398;2023-02-21T13:35:24;97320.13;;;30.73;14.82
12146;BME280;6136;47.032;15.398;2023-02-21T13:37:53;97311.72;;;32.52;13.10
12146;BME280;6136;47.032;15.398;2023-02-21T13:40:24;97308.31;;;30.91;13.87
12146;BME280;6136;47.032;15.398;2023-02-21T13:43:04;97313.47;;;28.55;16.79
12146;BME280;6136;47.032;15.398;2023-02-21T13:45:33;97313.94;;;28.52;15.80
12146;BME280;6136;47.032;15.398;2023-02-21T13:48:20;97302.50;;;28.88;16.16